Wylie's Hourly Summary for Saturday, July 7, 2018
Hour Temp
(f)
RH
(%)
Solar Rad.
(MJ/m2)
Rainfall
(in)
Wind
(mph)
7/7/2018 12:00 AM 79 64 0 0 2.83
7/7/2018 1:00 AM 78 69 0 0 3.1
7/7/2018 2:00 AM 77 73 0 0 3.57
7/7/2018 3:00 AM 76 75 0 0 2.46
7/7/2018 4:00 AM 76 76 0 0 3.53
7/7/2018 5:00 AM 74 77 0 0 2.15
7/7/2018 6:00 AM 73 93 0 0 2.36
7/7/2018 7:00 AM 73 97 0.05 0 3.89
7/7/2018 8:00 AM 75 83 0.47 0 3.34
7/7/2018 9:00 AM 77 75 1.09 0 4.58
7/7/2018 10:00 AM 80 66 1.66 0 4.75
7/7/2018 11:00 AM 83 62 2.26 0 4.67
7/7/2018 12:00 PM 86 54 2.7 0 4.15
7/7/2018 1:00 PM 87 53 1.95 0 3.99
7/7/2018 2:00 PM 88 47 1.92 0 3.45
7/7/2018 3:00 PM 91 42 2.84 0 4.85
7/7/2018 4:00 PM 92 38 2.87 0 5.18
7/7/2018 5:00 PM 93 38 2.5 0 6.5
7/7/2018 6:00 PM 90 43 1.5 0 8.64
7/7/2018 7:00 PM 89 42 0.8 0 5.81
7/7/2018 8:00 PM 90 43 0.24 0 4.47
7/7/2018 9:00 PM 88 47 0.03 0 2.44
7/7/2018 10:00 PM 84 51 0 0 7.81
7/7/2018 11:00 PM 84 55 0 0 3.52
Data Summary 82 60 22.88 0.00 4.25